Time;durP1;ratioP1;P1;durP2;ratioP2;P2;SDS_P1;SDS_P2;PMS_P1;PMS_P2;Temp;Humidity;BMP_temperature;BMP_pressure;BME280_temperature;BME280_humidity;BME280_pressure;Samples;Min_cycle;Max_cycle;Signal;HPM_P1;HPM_P2
2023/06/10 00:00:31;;;;;;;6.47;5.90;;;14.30;81.60;;;;;;2090453;28;20223;-69
2023/06/10 00:01:34;;;;;;;5.75;5.25;;;14.20;81.70;;;;;;2090447;28;20275;-71
2023/06/10 00:02:34;;;;;;;6.60;5.97;;;14.20;81.90;;;;;;2090089;28;20227;-71
2023/06/10 00:03:36;;;;;;;6.23;5.63;;;14.20;82.00;;;;;;2083427;28;20660;-71
2023/06/10 00:04:37;;;;;;;6.15;5.65;;;14.20;82.00;;;;;;2082347;28;20386;-71
2023/06/10 00:05:38;;;;;;;5.60;5.10;;;14.20;82.20;;;;;;2094073;28;20234;-72
2023/06/10 00:06:39;;;;;;;6.35;5.75;;;14.20;82.20;;;;;;2086640;28;20286;-71
2023/06/10 00:07:41;;;;;;;5.93;5.43;;;14.20;82.30;;;;;;2090084;28;20224;-71
2023/06/10 00:08:42;;;;;;;5.72;5.25;;;14.10;82.30;;;;;;2089337;28;20484;-71
2023/06/10 00:09:43;;;;;;;5.95;5.45;;;14.10;82.10;;;;;;2088660;28;20629;-69
2023/06/10 00:10:44;;;;;;;6.40;5.83;;;14.10;82.40;;;;;;2093752;28;20262;-69
2023/06/10 00:11:45;;;;;;;8.68;5.93;;;14.10;82.60;;;;;;2091118;28;20232;-71
2023/06/10 00:12:47;;;;;;;5.93;5.38;;;14.10;82.50;;;;;;2093983;28;20263;-68
2023/06/10 00:13:49;;;;;;;5.20;4.72;;;14.10;82.40;;;;;;2089872;28;20239;-71
2023/06/10 00:14:51;;;;;;;5.93;5.32;;;14.10;82.50;;;;;;2084787;28;20294;-71
2023/06/10 00:15:52;;;;;;;6.22;5.63;;;14.10;82.60;;;;;;2089790;28;20707;-71
2023/06/10 00:16:52;;;;;;;7.00;5.77;;;14.10;82.50;;;;;;2091504;28;20227;-71
2023/06/10 00:17:54;;;;;;;5.87;5.37;;;14.10;82.60;;;;;;2090431;28;20712;-71
2023/06/10 00:18:55;;;;;;;6.25;5.65;;;14.10;82.80;;;;;;2087497;28;20231;-71
2023/06/10 00:19:57;;;;;;;5.87;5.37;;;14.10;82.90;;;;;;2090827;28;20278;-71
2023/06/10 00:21:04;;;;;;;6.30;5.70;;;14.00;83.00;;;;;;2078484;28;20723;-71
2023/06/10 00:22:05;;;;;;;5.90;5.32;;;14.00;83.10;;;;;;2088714;28;20228;-71
2023/06/10 00:23:08;;;;;;;5.25;4.82;;;14.00;83.20;;;;;;2086966;28;20209;-72
2023/06/10 00:24:11;;;;;;;6.22;5.63;;;13.90;83.40;;;;;;2091359;28;20722;-71
2023/06/10 00:25:12;;;;;;;6.53;5.05;;;13.90;83.40;;;;;;2087639;28;20249;-71
2023/06/10 00:26:13;;;;;;;5.60;5.10;;;13.90;83.30;;;;;;2077838;28;20562;-71
2023/06/10 00:27:15;;;;;;;6.00;5.50;;;13.80;83.60;;;;;;2086250;28;20223;-71
2023/06/10 00:28:17;;;;;;;6.00;5.50;;;13.70;84.00;;;;;;2085307;28;20199;-71
2023/06/10 00:29:17;;;;;;;6.40;5.80;;;13.70;84.80;;;;;;2085793;28;20636;-71
2023/06/10 00:30:18;;;;;;;6.20;5.70;;;13.70;85.10;;;;;;2085418;28;20236;-71
2023/06/10 00:31:19;;;;;;;7.33;5.40;;;13.70;85.40;;;;;;2084829;28;20188;-71
2023/06/10 00:32:20;;;;;;;6.77;5.50;;;13.70;85.30;;;;;;2084700;28;20334;-71
2023/06/10 00:33:20;;;;;;;6.53;5.93;;;13.70;85.10;;;;;;2084603;28;21005;-71
2023/06/10 00:34:21;;;;;;;7.17;5.50;;;13.70;85.10;;;;;;2087188;28;20281;-71
2023/06/10 00:35:22;;;;;;;6.38;5.78;;;13.70;85.20;;;;;;2087217;28;20730;-70
2023/06/10 00:36:23;;;;;;;5.80;5.28;;;13.70;85.20;;;;;;2086609;28;20294;-71
2023/06/10 00:37:25;;;;;;;7.90;5.60;;;13.70;85.30;;;;;;2086229;28;20718;-71
2023/06/10 00:38:26;;;;;;;5.72;5.13;;;13.60;86.50;;;;;;2092561;28;20246;-70
2023/06/10 00:39:27;;;;;;;6.27;5.17;;;13.60;85.60;;;;;;2093766;28;20223;-71
2023/06/10 00:40:27;;;;;;;5.63;5.13;;;13.70;85.50;;;;;;2083987;28;20233;-71
2023/06/10 00:41:29;;;;;;;5.87;5.33;;;13.70;85.30;;;;;;2085774;28;20228;-71
2023/06/10 00:42:29;;;;;;;5.88;5.28;;;13.70;85.30;;;;;;2084825;28;20726;-71
2023/06/10 00:43:30;;;;;;;5.80;4.93;;;13.70;85.20;;;;;;2080749;28;20225;-69
2023/06/10 00:44:31;;;;;;;6.13;5.27;;;13.60;85.80;;;;;;2080423;28;20671;-69
2023/06/10 00:45:31;;;;;;;6.03;5.30;;;13.60;86.00;;;;;;2085111;28;20220;-71
2023/06/10 00:46:33;;;;;;;6.80;6.20;;;13.60;85.90;;;;;;2096648;28;20232;-71
2023/06/10 00:47:35;;;;;;;5.80;5.20;;;13.60;86.00;;;;;;2085642;28;20235;-71
2023/06/10 00:48:36;;;;;;;6.47;5.47;;;13.60;85.80;;;;;;2087740;28;20216;-71
2023/06/10 00:49:36;;;;;;;5.80;5.30;;;13.60;85.60;;;;;;2071946;28;20231;-71
2023/06/10 00:50:39;;;;;;;5.50;4.93;;;13.60;85.60;;;;;;2070310;28;20241;-71
2023/06/10 00:51:42;;;;;;;6.13;5.40;;;13.60;85.50;;;;;;2079090;28;20734;-71
2023/06/10 00:52:46;;;;;;;5.55;5.05;;;13.50;85.60;;;;;;2079367;28;20674;-71
2023/06/10 00:53:47;;;;;;;6.03;4.93;;;13.50;86.00;;;;;;2087848;28;20269;-71
2023/06/10 00:54:48;;;;;;;6.78;5.20;;;13.50;86.40;;;;;;2088177;28;20232;-71
2023/06/10 00:55:49;;;;;;;6.23;5.43;;;13.50;86.60;;;;;;2088150;28;20686;-71
2023/06/10 00:56:50;;;;;;;5.85;5.25;;;13.50;86.70;;;;;;2084934;28;20322;-71
2023/06/10 00:57:51;;;;;;;5.73;5.13;;;13.40;86.90;;;;;;2071462;28;20728;-71
2023/06/10 00:58:52;;;;;;;5.63;5.13;;;13.40;87.20;;;;;;2080067;28;20466;-71
2023/06/10 00:59:54;;;;;;;5.80;5.30;;;13.30;87.50;;;;;;2085027;28;20232;-71
2023/06/10 01:00:55;;;;;;;5.70;5.10;;;13.30;87.70;;;;;;2081194;28;20217;-71
2023/06/10 01:01:56;;;;;;;6.90;6.20;;;13.30;87.80;;;;;;2087778;28;20259;-71
2023/06/10 01:02:57;;;;;;;6.50;5.45;;;13.30;88.00;;;;;;2087445;28;20561;-71
2023/06/10 01:03:58;;;;;;;6.00;5.47;;;13.30;88.10;;;;;;2076595;28;20224;-71
2023/06/10 01:05:01;;;;;;;11.20;5.53;;;13.30;88.10;;;;;;2079331;28;20270;-71
2023/06/10 01:06:17;;;;;;;5.30;4.80;;;13.30;88.60;;;;;;2079135;28;20274;-72
2023/06/10 01:07:28;;;;;;;5.93;5.43;;;13.20;89.80;;;;;;2084110;28;20176;-71
2023/06/10 01:08:46;;;;;;;5.90;5.30;;;13.20;89.20;;;;;;2080031;28;20236;-71
2023/06/10 01:10:14;;;;;;;6.53;5.28;;;13.10;89.80;;;;;;2076923;28;20228;-71
2023/06/10 01:11:26;;;;;;;5.78;5.18;;;13.10;90.00;;;;;;2083566;28;20679;-69
2023/06/10 01:12:41;;;;;;;6.28;5.68;;;13.10;89.80;;;;;;2079265;28;20224;-70
2023/06/10 01:13:45;;;;;;;5.32;4.82;;;13.10;90.10;;;;;;2081880;28;20576;-70
2023/06/10 01:14:48;;;;;;;6.20;5.60;;;13.00;90.00;;;;;;2075473;28;20675;-70
2023/06/10 01:15:50;;;;;;;6.13;5.50;;;13.10;90.00;;;;;;2076504;28;20279;-70
2023/06/10 01:16:53;;;;;;;7.05;5.63;;;13.10;90.00;;;;;;2084406;28;20224;-70
2023/06/10 01:17:59;;;;;;;5.85;5.30;;;13.10;89.80;;;;;;2083444;28;20662;-70
2023/06/10 01:19:00;;;;;;;7.40;5.47;;;13.10;89.90;;;;;;2083428;28;20351;-70
2023/06/10 01:20:03;;;;;;;6.28;5.68;;;13.20;89.70;;;;;;2089267;28;20285;-71
2023/06/10 01:21:04;;;;;;;6.72;5.72;;;13.20;89.80;;;;;;2085627;28;20580;-70
2023/06/10 01:22:05;;;;;;;6.70;5.70;;;13.20;89.70;;;;;;2076391;28;20201;-70
2023/06/10 01:23:07;;;;;;;6.17;5.27;;;13.10;89.60;;;;;;2084771;28;20437;-71
2023/06/10 01:24:08;;;;;;;7.38;5.75;;;13.20;89.70;;;;;;2082146;28;20205;-70
2023/06/10 01:25:09;;;;;;;5.93;5.13;;;13.10;89.60;;;;;;2086321;28;20204;-70
2023/06/10 01:26:12;;;;;;;7.15;5.63;;;13.10;89.80;;;;;;2088192;28;20279;-70
2023/06/10 01:27:15;;;;;;;5.70;5.20;;;13.10;90.00;;;;;;2084773;28;20188;-70
2023/06/10 01:28:31;;;;;;;6.85;5.30;;;13.10;90.00;;;;;;2086938;28;20256;-70
2023/06/10 01:29:52;;;;;;;6.07;5.35;;;13.10;90.50;;;;;;2085683;28;20231;-70
2023/06/10 01:31:33;;;;;;;8.95;5.80;;;13.10;90.00;;;;;;2084367;28;20227;-69
2023/06/10 01:32:44;;;;;;;6.85;5.30;;;13.10;89.90;;;;;;2081292;28;20232;-70
2023/06/10 01:33:52;;;;;;;5.93;5.43;;;13.10;89.80;;;;;;2088459;28;20239;-70
2023/06/10 01:34:54;;;;;;;5.95;5.20;;;13.00;90.00;;;;;;2079367;28;20220;-70
2023/06/10 01:35:59;;;;;;;7.57;5.90;;;13.00;90.30;;;;;;2083013;28;20278;-70
2023/06/10 01:37:01;;;;;;;9.52;5.97;;;12.90;90.40;;;;;;2085938;28;20231;-70
2023/06/10 01:38:03;;;;;;;5.93;5.32;;;12.90;90.30;;;;;;2078651;28;20240;-71
2023/06/10 01:39:06;;;;;;;6.45;5.72;;;12.90;90.40;;;;;;2078261;28;20193;-70
2023/06/10 01:40:07;;;;;;;6.47;5.85;;;12.90;90.30;;;;;;2075913;28;20211;-70
2023/06/10 01:41:09;;;;;;;6.32;5.70;;;12.90;90.40;;;;;;2078898;28;20181;-70
2023/06/10 01:42:12;;;;;;;6.20;5.35;;;12.90;90.50;;;;;;2076732;28;20706;-69
2023/06/10 01:43:13;;;;;;;6.32;5.50;;;12.80;90.80;;;;;;2084581;28;20184;-70
2023/06/10 01:44:19;;;;;;;6.77;5.70;;;12.80;90.80;;;;;;2081350;28;20177;-70
2023/06/10 01:45:20;;;;;;;6.30;5.70;;;12.90;90.80;;;;;;2083229;28;20612;-70
2023/06/10 01:46:21;;;;;;;6.40;5.80;;;12.90;90.70;;;;;;2070670;28;20241;-70
2023/06/10 01:47:22;;;;;;;6.65;5.95;;;12.90;90.60;;;;;;2074437;28;20648;-72
2023/06/10 01:48:23;;;;;;;6.50;5.50;;;12.90;90.70;;;;;;2082804;28;20246;-70
2023/06/10 01:49:26;;;;;;;6.17;5.47;;;12.90;90.90;;;;;;2085666;28;20258;-70
2023/06/10 01:50:26;;;;;;;5.90;5.40;;;12.80;90.90;;;;;;2085968;28;20224;-70
2023/06/10 01:51:27;;;;;;;7.07;6.20;;;12.80;90.90;;;;;;2087385;28;20710;-70
2023/06/10 01:52:28;;;;;;;6.40;5.80;;;12.80;90.90;;;;;;2088401;28;20273;-70
2023/06/10 01:53:29;;;;;;;6.60;5.90;;;12.80;90.90;;;;;;2087548;28;20274;-70
2023/06/10 01:54:29;;;;;;;6.40;5.70;;;12.80;91.00;;;;;;2087789;28;20335;-69
2023/06/10 01:55:30;;;;;;;9.47;5.80;;;12.80;91.00;;;;;;2087291;28;20235;-69
2023/06/10 01:56:31;;;;;;;6.30;5.70;;;12.70;91.00;;;;;;2079503;28;20245;-69
2023/06/10 01:57:32;;;;;;;6.40;5.57;;;12.70;91.20;;;;;;2086693;28;20224;-69
2023/06/10 01:58:34;;;;;;;6.32;5.72;;;12.70;91.40;;;;;;2087778;28;20228;-69
2023/06/10 01:59:37;;;;;;;6.38;5.78;;;12.70;91.50;;;;;;2083688;28;20229;-69
2023/06/10 02:00:38;;;;;;;6.93;5.72;;;12.70;91.40;;;;;;2087327;28;20247;-69
2023/06/10 02:01:38;;;;;;;8.07;5.97;;;12.70;91.50;;;;;;2086348;28;20713;-69
2023/06/10 02:02:39;;;;;;;6.30;5.70;;;12.70;91.60;;;;;;2088053;28;20260;-69
2023/06/10 02:03:40;;;;;;;5.97;5.37;;;12.70;91.60;;;;;;2087411;28;20239;-69
2023/06/10 02:04:40;;;;;;;6.67;5.97;;;12.70;91.70;;;;;;2087442;28;20231;-69
2023/06/10 02:05:41;;;;;;;6.00;5.40;;;12.60;91.60;;;;;;2087769;28;20227;-69
2023/06/10 02:06:45;;;;;;;6.57;5.87;;;12.70;91.50;;;;;;2086839;28;20712;-69
2023/06/10 02:07:45;;;;;;;6.75;6.07;;;12.70;91.50;;;;;;2087401;28;20231;-69
2023/06/10 02:08:46;;;;;;;6.90;6.20;;;12.70;91.50;;;;;;2084424;28;20231;-70
2023/06/10 02:09:47;;;;;;;6.33;5.73;;;12.70;91.40;;;;;;2087194;28;20227;-69
2023/06/10 02:10:48;;;;;;;6.17;5.57;;;12.70;91.50;;;;;;2087072;28;20686;-69
2023/06/10 02:11:49;;;;;;;7.20;5.53;;;12.70;91.60;;;;;;2084586;28;20244;-69
2023/06/10 02:12:50;;;;;;;7.30;6.18;;;12.70;91.70;;;;;;2083781;28;20239;-69
2023/06/10 02:13:51;;;;;;;8.43;5.40;;;12.70;91.70;;;;;;2079393;28;20710;-69
2023/06/10 02:14:51;;;;;;;6.40;5.75;;;12.70;91.70;;;;;;2086511;28;20232;-69
2023/06/10 02:15:53;;;;;;;6.37;5.77;;;12.70;91.70;;;;;;2084439;28;20256;-70
2023/06/10 02:16:56;;;;;;;7.35;6.65;;;12.60;91.90;;;;;;2084072;28;20236;-69
2023/06/10 02:17:57;;;;;;;8.82;5.80;;;12.60;92.20;;;;;;2075998;28;20241;-69
2023/06/10 02:19:00;;;;;;;6.78;5.90;;;12.50;92.30;;;;;;2087983;28;20690;-69
2023/06/10 02:20:04;;;;;;;6.28;5.55;;;12.60;92.40;;;;;;2095127;28;20294;-70
2023/06/10 02:21:06;;;;;;;6.35;5.75;;;12.50;92.40;;;;;;2086484;28;20185;-69
2023/06/10 02:22:07;;;;;;;9.23;6.78;;;12.60;92.40;;;;;;2087494;28;20191;-69
2023/06/10 02:23:09;;;;;;;7.80;5.83;;;12.50;92.50;;;;;;2090938;28;20612;-71
2023/06/10 02:24:10;;;;;;;6.65;5.80;;;12.50;92.80;;;;;;2089196;28;20191;-69
2023/06/10 02:25:11;;;;;;;6.70;6.00;;;12.50;92.60;;;;;;2081451;28;20208;-69
2023/06/10 02:26:11;;;;;;;6.93;6.33;;;12.50;92.50;;;;;;2084916;28;20187;-69
2023/06/10 02:27:12;;;;;;;7.00;6.30;;;12.50;92.50;;;;;;2084680;28;20195;-69
2023/06/10 02:28:15;;;;;;;7.32;5.95;;;12.50;92.60;;;;;;2084226;28;20208;-70
2023/06/10 02:29:16;;;;;;;6.57;5.97;;;12.50;92.60;;;;;;2083949;28;20217;-69
2023/06/10 02:30:17;;;;;;;7.10;6.40;;;12.50;92.60;;;;;;2087570;28;20193;-70
2023/06/10 02:31:18;;;;;;;7.80;6.13;;;12.50;92.40;;;;;;2085412;28;20184;-70
2023/06/10 02:32:19;;;;;;;6.87;5.43;;;12.50;92.40;;;;;;2084171;28;20200;-71
2023/06/10 02:33:20;;;;;;;7.50;6.00;;;12.50;92.40;;;;;;2079745;28;20181;-71
2023/06/10 02:34:22;;;;;;;7.00;6.35;;;12.60;92.40;;;;;;2084958;28;20991;-71
2023/06/10 02:35:24;;;;;;;7.57;5.70;;;12.60;92.20;;;;;;2086723;28;20227;-70
2023/06/10 02:36:28;;;;;;;7.60;6.07;;;12.60;92.20;;;;;;2079514;28;20229;-70
2023/06/10 02:37:29;;;;;;;10.65;6.30;;;12.60;92.30;;;;;;2087226;28;20235;-70
2023/06/10 02:38:29;;;;;;;6.85;6.25;;;12.60;92.60;;;;;;2083328;28;20275;-70
2023/06/10 02:39:30;;;;;;;7.23;6.50;;;12.50;92.60;;;;;;2093230;28;20231;-71
2023/06/10 02:40:32;;;;;;;6.68;5.97;;;12.50;92.80;;;;;;2073906;28;20307;-72
2023/06/10 02:41:32;;;;;;;8.05;5.82;;;12.50;92.70;;;;;;2071206;28;20233;-70
2023/06/10 02:42:33;;;;;;;7.00;6.30;;;12.50;92.50;;;;;;2081348;28;20224;-70
2023/06/10 02:43:34;;;;;;;7.20;6.37;;;12.50;92.50;;;;;;2085371;28;20232;-70
2023/06/10 02:44:35;;;;;;;6.65;5.68;;;12.50;92.50;;;;;;2076627;28;20793;-70
2023/06/10 02:45:35;;;;;;;7.90;5.70;;;12.50;92.40;;;;;;2071094;28;20241;-71
2023/06/10 02:46:36;;;;;;;7.07;5.87;;;12.50;92.30;;;;;;2075393;28;20252;-70
2023/06/10 02:47:39;;;;;;;7.80;7.00;;;12.50;92.30;;;;;;2087211;28;20228;-71
2023/06/10 02:48:45;;;;;;;6.95;6.25;;;12.50;92.30;;;;;;2080299;28;20229;-70
2023/06/10 02:49:46;;;;;;;8.15;6.30;;;12.50;92.40;;;;;;2086760;28;20756;-70
2023/06/10 02:50:47;;;;;;;6.73;6.03;;;12.40;92.70;;;;;;2082347;28;20270;-70
2023/06/10 02:51:47;;;;;;;5.97;5.37;;;12.30;93.40;;;;;;2079396;28;20686;-70
2023/06/10 02:52:49;;;;;;;6.93;6.23;;;12.30;93.60;;;;;;2076495;28;20319;-70
2023/06/10 02:53:50;;;;;;;8.13;6.18;;;12.30;93.50;;;;;;2078834;28;20279;-70
2023/06/10 02:54:51;;;;;;;6.77;6.07;;;12.30;93.30;;;;;;2070403;28;20631;-70
2023/06/10 02:55:51;;;;;;;7.37;6.47;;;12.20;93.60;;;;;;2087082;28;20224;-70
2023/06/10 02:56:54;;;;;;;6.87;6.17;;;12.20;94.10;;;;;;2087314;28;20333;-70
2023/06/10 02:57:55;;;;;;;8.65;6.25;;;12.20;94.20;;;;;;2079709;28;20225;-70
2023/06/10 02:58:56;;;;;;;7.70;6.90;;;12.30;93.90;;;;;;2086848;28;20224;-72
2023/06/10 02:59:58;;;;;;;7.20;6.50;;;12.30;93.80;;;;;;2075905;28;20406;-70
2023/06/10 03:00:59;;;;;;;7.30;6.22;;;12.30;93.70;;;;;;2079270;28;20707;-70
2023/06/10 03:02:01;;;;;;;7.30;6.60;;;12.30;93.50;;;;;;2090460;28;20306;-70
2023/06/10 03:03:04;;;;;;;6.43;5.82;;;12.40;93.30;;;;;;2083241;28;20232;-71
2023/06/10 03:04:07;;;;;;;11.07;6.65;;;12.30;93.30;;;;;;2081498;28;20197;-70
2023/06/10 03:05:10;;;;;;;6.70;6.00;;;12.40;93.30;;;;;;2081114;28;20185;-70
2023/06/10 03:06:12;;;;;;;7.30;6.07;;;12.40;93.10;;;;;;2082062;28;20188;-71
2023/06/10 03:07:13;;;;;;;6.05;5.45;;;12.40;93.10;;;;;;2085564;28;20203;-70
2023/06/10 03:08:14;;;;;;;6.90;6.20;;;12.30;93.00;;;;;;2091107;28;20219;-70
2023/06/10 03:09:15;;;;;;;6.23;5.63;;;12.40;92.80;;;;;;2082435;28;20187;-70
2023/06/10 03:10:16;;;;;;;7.63;5.63;;;12.40;92.70;;;;;;2079614;28;20258;-70
2023/06/10 03:11:16;;;;;;;9.60;6.10;;;12.30;92.60;;;;;;2082348;28;20207;-70
2023/06/10 03:12:18;;;;;;;8.67;6.40;;;12.40;92.90;;;;;;2078327;28;20676;-71
2023/06/10 03:13:19;;;;;;;8.75;6.20;;;12.40;93.00;;;;;;2087192;28;20266;-70
2023/06/10 03:14:20;;;;;;;7.00;6.30;;;12.30;93.20;;;;;;2084822;28;20195;-70
2023/06/10 03:15:21;;;;;;;7.83;6.53;;;12.30;93.20;;;;;;2076682;28;20256;-70
2023/06/10 03:16:22;;;;;;;7.35;6.53;;;12.30;93.30;;;;;;2082126;28;20602;-70
2023/06/10 03:17:23;;;;;;;7.78;6.22;;;12.30;93.40;;;;;;2080823;28;20342;-72
2023/06/10 03:18:28;;;;;;;9.00;6.75;;;12.30;93.40;;;;;;2075733;28;20678;-70
2023/06/10 03:19:30;;;;;;;9.27;7.70;;;12.30;93.50;;;;;;2087793;28;20238;-71
2023/06/10 03:20:31;;;;;;;6.88;6.15;;;12.30;93.40;;;;;;2086439;28;20281;-70
2023/06/10 03:21:31;;;;;;;8.00;6.20;;;12.30;93.40;;;;;;2082225;28;20362;-70
2023/06/10 03:22:32;;;;;;;7.50;5.90;;;12.30;93.30;;;;;;2081809;28;20220;-70
2023/06/10 03:23:33;;;;;;;7.50;6.40;;;12.30;93.00;;;;;;2091134;28;20559;-71
2023/06/10 03:24:35;;;;;;;7.33;6.63;;;12.20;92.80;;;;;;2081772;28;20573;-70
2023/06/10 03:25:36;;;;;;;7.45;6.60;;;12.20;92.80;;;;;;2083642;28;20235;-71
2023/06/10 03:26:37;;;;;;;6.70;6.00;;;12.20;92.90;;;;;;2085571;28;20220;-70
2023/06/10 03:27:38;;;;;;;7.77;6.50;;;12.20;93.10;;;;;;2092742;28;20226;-70
2023/06/10 03:28:38;;;;;;;7.70;6.63;;;12.10;93.10;;;;;;2086987;28;20227;-70
2023/06/10 03:29:39;;;;;;;7.13;6.43;;;12.10;93.30;;;;;;2085893;28;20232;-70
2023/06/10 03:30:40;;;;;;;6.90;6.20;;;12.10;93.70;;;;;;2070606;28;20229;-70
2023/06/10 03:31:41;;;;;;;7.50;6.78;;;12.00;93.90;;;;;;2078988;28;20231;-70
2023/06/10 03:32:43;;;;;;;7.40;6.70;;;12.00;94.00;;;;;;2082924;28;20630;-70
2023/06/10 03:33:43;;;;;;;8.50;7.57;;;12.00;94.10;;;;;;2086462;28;20230;-70
2023/06/10 03:34:45;;;;;;;7.23;6.33;;;12.00;94.10;;;;;;2094022;28;20223;-70
2023/06/10 03:35:46;;;;;;;7.63;6.53;;;12.00;94.10;;;;;;2085955;28;20224;-70
2023/06/10 03:36:46;;;;;;;7.90;7.10;;;12.00;94.30;;;;;;2082785;28;20232;-70
2023/06/10 03:37:47;;;;;;;7.22;6.53;;;12.00;94.30;;;;;;2080943;28;20224;-70
2023/06/10 03:38:51;;;;;;;8.18;6.63;;;12.00;94.20;;;;;;2083376;28;20239;-70
2023/06/10 03:39:52;;;;;;;8.23;7.35;;;12.10;94.40;;;;;;2082975;28;20220;-70
2023/06/10 03:40:53;;;;;;;8.20;7.00;;;12.00;94.40;;;;;;2083374;28;20262;-70
2023/06/10 03:41:53;;;;;;;9.13;7.37;;;12.00;94.50;;;;;;2082957;28;20228;-70
2023/06/10 03:42:55;;;;;;;8.37;7.40;;;12.00;94.40;;;;;;2083006;28;20887;-70
2023/06/10 03:43:57;;;;;;;8.10;7.30;;;12.10;94.50;;;;;;2082570;28;20311;-70
2023/06/10 03:44:58;;;;;;;9.23;7.40;;;12.00;94.40;;;;;;2086919;28;20235;-70
2023/06/10 03:45:59;;;;;;;8.80;8.00;;;12.10;94.40;;;;;;2081523;28;20244;-70
2023/06/10 03:47:01;;;;;;;8.33;6.60;;;12.10;94.40;;;;;;2079060;28;20983;-70
2023/06/10 03:48:03;;;;;;;7.43;6.65;;;12.10;94.50;;;;;;2077505;28;20239;-70
2023/06/10 03:49:04;;;;;;;10.32;7.32;;;12.10;94.40;;;;;;2090686;28;20583;-71
2023/06/10 03:50:06;;;;;;;8.20;7.07;;;12.20;94.30;;;;;;2084796;28;20724;-70
2023/06/10 03:51:07;;;;;;;7.53;6.82;;;12.20;94.20;;;;;;2084692;28;20184;-70
2023/06/10 03:52:08;;;;;;;7.73;7.03;;;12.20;94.20;;;;;;2073588;28;20201;-70
2023/06/10 03:53:08;;;;;;;7.33;6.33;;;12.20;94.20;;;;;;2086602;28;20216;-70
2023/06/10 03:54:10;;;;;;;7.57;6.83;;;12.20;94.10;;;;;;2086618;28;20213;-70
2023/06/10 03:55:11;;;;;;;7.88;7.07;;;12.20;93.90;;;;;;2083729;28;20184;-70
2023/06/10 03:56:12;;;;;;;9.00;7.80;;;12.20;93.80;;;;;;2085432;28;20652;-71
2023/06/10 03:57:13;;;;;;;7.47;6.73;;;12.10;94.00;;;;;;2082600;28;20184;-70
2023/06/10 03:58:14;;;;;;;7.47;6.57;;;12.10;94.10;;;;;;2086101;28;20204;-70
2023/06/10 03:59:15;;;;;;;7.88;7.07;;;12.10;94.10;;;;;;2081915;28;20187;-70
2023/06/10 04:00:17;;;;;;;7.90;7.10;;;12.10;94.20;;;;;;2087475;28;20203;-70
2023/06/10 04:01:20;;;;;;;7.45;6.63;;;12.20;94.10;;;;;;2073164;28;20178;-70
2023/06/10 04:02:22;;;;;;;7.50;6.80;;;12.20;94.00;;;;;;2089044;28;20240;-70
2023/06/10 04:03:23;;;;;;;6.90;6.20;;;12.20;93.80;;;;;;2093301;28;20223;-70
2023/06/10 04:04:24;;;;;;;7.38;6.63;;;12.20;93.90;;;;;;2094010;28;20366;-70
2023/06/10 04:05:25;;;;;;;8.57;7.47;;;12.20;94.00;;;;;;2089339;28;20232;-70
2023/06/10 04:06:28;;;;;;;7.87;6.80;;;12.10;94.00;;;;;;2086516;28;20263;-70
2023/06/10 04:07:30;;;;;;;7.47;6.70;;;12.10;94.20;;;;;;2087970;28;20249;-70
2023/06/10 04:08:32;;;;;;;8.18;7.38;;;12.20;94.00;;;;;;2088541;28;20228;-71
2023/06/10 04:09:33;;;;;;;7.38;6.68;;;12.20;94.00;;;;;;2089613;28;20224;-70
2023/06/10 04:10:34;;;;;;;7.30;6.57;;;12.20;94.60;;;;;;2089156;28;20307;-70
2023/06/10 04:11:35;;;;;;;7.17;6.30;;;12.20;94.10;;;;;;2078935;28;20283;-70
2023/06/10 04:12:37;;;;;;;8.25;7.00;;;12.20;94.10;;;;;;2082784;28;20224;-70
2023/06/10 04:13:38;;;;;;;7.28;6.57;;;12.30;94.10;;;;;;2088173;28;20703;-70
2023/06/10 04:14:39;;;;;;;7.53;6.83;;;12.30;94.00;;;;;;2084309;28;20229;-71
2023/06/10 04:15:41;;;;;;;7.97;7.18;;;12.30;94.10;;;;;;2092773;28;20307;-70
2023/06/10 04:16:42;;;;;;;7.43;6.57;;;12.30;94.10;;;;;;2087632;28;20228;-70
2023/06/10 04:17:43;;;;;;;7.88;7.10;;;12.40;94.10;;;;;;2084976;28;20256;-70
2023/06/10 04:18:44;;;;;;;9.07;6.65;;;12.30;94.10;;;;;;2083361;28;20296;-70
2023/06/10 04:19:45;;;;;;;7.47;6.47;;;12.20;94.30;;;;;;2084984;28;20220;-70
2023/06/10 04:20:48;;;;;;;7.78;7.07;;;12.30;94.50;;;;;;2085344;28;20596;-70
2023/06/10 04:21:48;;;;;;;9.23;6.88;;;12.30;94.40;;;;;;2089462;28;21088;-70
2023/06/10 04:22:51;;;;;;;8.10;7.30;;;12.40;94.20;;;;;;2088816;28;20231;-70
2023/06/10 04:23:52;;;;;;;7.63;6.82;;;12.30;94.10;;;;;;2081904;28;20311;-70
2023/06/10 04:24:53;;;;;;;8.63;7.83;;;12.30;94.10;;;;;;2087806;28;20228;-70
2023/06/10 04:25:54;;;;;;;8.10;7.15;;;12.40;93.90;;;;;;2087509;28;20469;-70
2023/06/10 04:26:54;;;;;;;7.57;6.83;;;12.30;94.10;;;;;;2095362;28;20227;-70
2023/06/10 04:27:55;;;;;;;11.23;7.00;;;12.40;94.00;;;;;;2084747;28;20476;-75
2023/06/10 04:28:56;;;;;;;8.10;7.10;;;12.40;93.90;;;;;;2080265;28;20310;-70
2023/06/10 04:29:56;;;;;;;7.43;6.73;;;12.40;93.90;;;;;;2072431;28;20272;-70
2023/06/10 04:30:57;;;;;;;7.57;6.87;;;12.40;93.90;;;;;;2087808;28;20224;-70
2023/06/10 04:31:59;;;;;;;7.50;6.70;;;12.40;93.90;;;;;;2083435;28;20444;-70
2023/06/10 04:33:02;;;;;;;8.48;7.60;;;12.50;94.10;;;;;;2090694;28;20287;-70
2023/06/10 04:34:02;;;;;;;8.38;7.50;;;12.40;94.10;;;;;;2077700;28;20807;-72
2023/06/10 04:35:04;;;;;;;7.23;6.53;;;12.40;94.20;;;;;;2079677;28;20312;-70
2023/06/10 04:36:07;;;;;;;7.97;7.18;;;12.50;94.00;;;;;;2074617;28;20591;-70
2023/06/10 04:37:07;;;;;;;8.15;7.35;;;12.50;94.00;;;;;;2080424;28;20263;-70
2023/06/10 04:38:08;;;;;;;7.93;7.13;;;12.50;94.30;;;;;;2069134;28;20209;-70
2023/06/10 04:39:10;;;;;;;7.93;7.10;;;12.60;93.50;;;;;;2082359;28;20534;-70
2023/06/10 04:40:11;;;;;;;7.32;6.50;;;12.60;93.40;;;;;;2085769;28;20180;-71
2023/06/10 04:41:12;;;;;;;8.65;7.43;;;12.50;93.60;;;;;;2080239;28;20185;-70
2023/06/10 04:42:12;;;;;;;7.73;6.93;;;12.60;93.50;;;;;;2077847;28;20185;-70
2023/06/10 04:43:13;;;;;;;7.90;6.83;;;12.60;93.40;;;;;;2080757;28;20188;-70
2023/06/10 04:44:14;;;;;;;8.27;6.97;;;12.60;93.40;;;;;;2087761;28;20587;-70
2023/06/10 04:45:15;;;;;;;8.77;7.00;;;12.60;93.50;;;;;;2088489;28;20188;-70
2023/06/10 04:46:15;;;;;;;8.10;6.67;;;12.70;93.60;;;;;;2085524;28;20181;-70
2023/06/10 04:47:17;;;;;;;8.17;7.03;;;12.60;94.00;;;;;;2087106;28;20177;-70
2023/06/10 04:48:18;;;;;;;8.35;7.55;;;12.50;94.20;;;;;;2091877;28;20216;-70
2023/06/10 04:49:18;;;;;;;7.80;7.10;;;12.60;94.50;;;;;;2091983;28;20238;-70
2023/06/10 04:50:20;;;;;;;9.10;7.87;;;12.60;94.30;;;;;;2085102;28;20432;-70
2023/06/10 04:51:21;;;;;;;7.35;6.68;;;12.60;94.40;;;;;;2086479;28;20215;-70
2023/06/10 04:52:22;;;;;;;8.43;7.47;;;12.60;94.60;;;;;;2086185;28;20301;-70
2023/06/10 04:53:23;;;;;;;8.25;7.07;;;12.70;94.50;;;;;;2085915;28;20228;-71
2023/06/10 04:54:23;;;;;;;8.43;7.10;;;12.70;94.50;;;;;;2089685;28;20307;-71
2023/06/10 04:55:26;;;;;;;8.23;7.17;;;12.70;94.60;;;;;;2073873;28;20608;-70
2023/06/10 04:56:27;;;;;;;8.70;7.90;;;12.80;94.60;;;;;;2076028;28;20282;-71
2023/06/10 04:57:27;;;;;;;8.70;7.80;;;12.80;94.40;;;;;;2085419;28;20233;-71
2023/06/10 04:58:28;;;;;;;8.47;7.63;;;12.80;94.50;;;;;;2086827;28;20236;-71
2023/06/10 04:59:29;;;;;;;10.33;8.33;;;12.90;94.40;;;;;;2078268;28;20428;-71
2023/06/10 05:00:30;;;;;;;8.60;7.72;;;13.00;94.40;;;;;;2082358;28;20224;-71
2023/06/10 05:01:31;;;;;;;9.57;8.47;;;13.10;94.40;;;;;;2077282;28;20228;-70
2023/06/10 05:02:31;;;;;;;8.53;7.40;;;13.10;94.30;;;;;;2080078;28;20236;-71
2023/06/10 05:03:34;;;;;;;9.13;8.10;;;13.20;94.20;;;;;;2079994;28;20303;-71
2023/06/10 05:04:34;;;;;;;10.05;8.00;;;13.20;94.10;;;;;;2078450;28;20232;-70
2023/06/10 05:05:35;;;;;;;8.57;7.67;;;13.20;93.90;;;;;;2086556;28;20220;-71
2023/06/10 05:06:36;;;;;;;9.23;8.30;;;13.20;94.10;;;;;;2093536;28;20269;-71
2023/06/10 05:07:38;;;;;;;8.35;7.55;;;13.30;93.90;;;;;;2083859;28;20217;-71
2023/06/10 05:08:39;;;;;;;8.77;7.60;;;13.40;93.90;;;;;;2087612;28;20392;-71
2023/06/10 05:09:40;;;;;;;9.30;8.40;;;13.40;93.80;;;;;;2080524;28;20232;-71
2023/06/10 05:10:42;;;;;;;9.50;8.50;;;13.40;93.60;;;;;;2082865;28;20315;-71
2023/06/10 05:11:43;;;;;;;8.95;8.00;;;13.40;93.40;;;;;;2083815;28;20240;-71
2023/06/10 05:12:43;;;;;;;9.37;8.23;;;13.50;93.30;;;;;;2080787;28;20326;-71
2023/06/10 05:13:44;;;;;;;8.50;7.70;;;13.50;93.50;;;;;;2084543;28;20279;-71
2023/06/10 05:14:46;;;;;;;9.43;7.87;;;13.60;93.40;;;;;;2080629;28;20231;-71
2023/06/10 05:15:46;;;;;;;9.90;8.07;;;13.70;93.10;;;;;;2084292;28;20576;-71
2023/06/10 05:16:48;;;;;;;9.13;8.23;;;13.70;92.70;;;;;;2084530;28;20282;-72
2023/06/10 05:17:50;;;;;;;8.88;7.97;;;13.70;92.90;;;;;;2091437;28;20239;-71
2023/06/10 05:18:51;;;;;;;8.85;8.02;;;13.70;92.90;;;;;;2092249;28;20224;-71
2023/06/10 05:19:53;;;;;;;10.98;8.13;;;13.80;92.80;;;;;;2084679;28;20597;-71
2023/06/10 05:20:54;;;;;;;8.80;8.00;;;13.80;92.70;;;;;;2088853;28;20223;-71
2023/06/10 05:21:55;;;;;;;9.50;8.05;;;13.90;92.50;;;;;;2082750;28;20220;-71